Flight Track Log - Related Links

Times and Time Zones

All times are in EDT time to prevent confusion due to time zone crossing. See the AAL1431 flight status page for this flight to view local times or setup timezone preferences in your user account.

Time Position Orientation Groundspeed Altitude Reporting Facility
EDT Latitude Longitude Course Direction KTS MPH feet Rate Location/Type
Mon 11:58:40 PM 32.8490 -97.0550 190° South 200 230 2,400  Level FlightAware ADS-B
Mon 11:59:12 PM 32.8150 -97.0660 195° South 243 280 3,200 2,160 Climbing FlightAware ADS-B
Mon 11:59:30 PM 32.7950 -97.0740 199° South 242 278 4,200 3,000 Climbing FlightAware ADS-B
Mon 11:59:44 PM 32.7810 -97.0840 211° Southwest 252 290 4,800 2,800 Climbing FlightAware ADS-B
Tue 12:00:00 AM 32.7710 -97.1020 237° Southwest 260 299 5,600 3,000 Climbing FlightAware ADS-B
Tue 12:00:10 AM 32.7680 -97.1170 257° West 270 311 6,100 2,571 Climbing FlightAware ADS-B
Tue 12:00:56 AM 32.7690 -97.1860 271° West 289 333 8,000 2,500 Climbing FlightAware ADS-B
Tue 12:01:22 AM 32.7770 -97.2280 283° West 304 350 9,100 2,471 Climbing FlightAware ADS-B
Tue 12:01:30 AM 32.7820 -97.2390 298° West 309 356 9,400 2,250 Climbing FlightAware ADS-B
Tue 12:01:46 AM 32.7970 -97.2620 308° West 321 369 10,000 1,607 Climbing FlightAware ADS-B
Tue 12:02:26 AM 32.8410 -97.3140 315° West 357 411 10,900 2,169 Climbing FlightAware ADS-B
Tue 12:03:09 AM 32.8920 -97.3770 314° West 358 412 13,000 2,714 Climbing FlightAware ADS-B
Tue 12:03:50 AM 32.9260 -97.4460 300° West 364 419 14,700 2,541 Climbing FlightAware ADS-B
Tue 12:04:34 AM 32.9620 -97.5250 299° West 372 428 16,600 1,610 Climbing FlightAware ADS-B
Tue 12:05:12 AM 32.9930 -97.5920 299° West 375 432 16,900 867 Climbing FlightAware ADS-B
Tue 12:05:57 AM 33.0310 -97.6760 298° West 378 435 17,800 1,421 Climbing FlightAware ADS-B
Tue 12:06:28 AM 33.0550 -97.7300 298° West 389 448 18,700 1,714 Climbing FlightAware ADS-B
Tue 12:07:14 AM 33.0960 -97.8220 298° West 408 470 20,000 1,977 Climbing FlightAware ADS-B
Tue 12:07:56 AM 33.1340 -97.9080 298° West 411 473 21,600 2,132 Climbing FlightAware ADS-B
Tue 12:08:30 AM 33.1640 -97.9710 300° West 411 473 22,700 1,703 Climbing FlightAware ADS-B
Tue 12:09:10 AM 33.2190 -98.0440 312° West 431 496 23,700 769 Climbing FlightAware ADS-B
Tue 12:09:48 AM 33.2630 -98.1000 313° West 431 496 23,700  Level FlightAware ADS-B
Tue 12:11:00 AM 33.3460 -98.2070 313° West 431 496 23,700 1,587 Level FlightAware ADS-B
Tue 12:11:49 AM 33.4310 -98.3080 315° West 460 529 26,900 1,979 Climbing FlightAware ADS-B
Tue 12:12:37 AM 33.4910 -98.3830 314° West 460 529 26,900  Level FlightAware ADS-B
Tue 12:13:13 AM 33.5360 -98.4390 314° West 460 529 26,900 2,494 Level FlightAware ADS-B
Tue 12:13:54 AM 33.6380 -98.5680 314° West 482 555 30,100 2,110 Climbing FlightAware ADS-B
Tue 12:14:44 AM 33.7030 -98.6510 313° West 482 555 30,100  Level FlightAware ADS-B
Tue 12:15:29 AM 33.7610 -98.7260 313° West 482 555 30,100  Level FlightAware ADS-B
Tue 12:16:39 AM 33.8520 -98.8430 313° West 482 555 30,100  Level FlightAware ADS-B
Tue 12:17:27 AM 33.9140 -98.9230 313° West 482 555 30,100 3,033 Level FlightAware ADS-B
Tue 12:18:10 AM 34.0400 -99.0750 315° West 497 572 34,700 3,261 Climbing FlightAware ADS-B
Tue 12:18:59 AM 34.1100 -99.1640 314° West 496 571 35,100 282 Climbing FlightAware ADS-B
Tue 12:19:35 AM 34.1580 -99.2260 313° West 496 571 35,100  Level FlightAware ADS-B
Tue 12:20:23 AM 34.2220 -99.3090 313° West 496 571 35,100  Level FlightAware ADS-B
Tue 12:20:59 AM 34.2700 -99.3710 313° West 496 571 35,100  Level FlightAware ADS-B
Tue 12:21:36 AM 34.3190 -99.4350 313° West 496 571 35,100  Level FlightAware ADS-B
Tue 12:22:24 AM 34.3830 -99.5180 313° West 496 571 35,100  Level FlightAware ADS-B
Tue 12:23:00 AM 34.4310 -99.5800 313° West 496 571 35,100  Level FlightAware ADS-B
Tue 12:23:48 AM 34.4940 -99.6630 313° West 496 571 35,100 519 Level FlightAware ADS-B
Tue 12:24:44 AM 34.6260 -99.8310 314° West 463 533 36,000 587 Climbing FlightAware ADS-B
Tue 12:25:20 AM 34.6700 -99.8900 312° West 463 533 36,000  Level FlightAware ADS-B
Tue 12:25:56 AM 34.7140 -99.9490 312° West 463 533 36,000  Level FlightAware ADS-B
Tue 12:26:43 AM 34.8150 -100.0740 315° West 466 536 36,000  Level FlightAware ADS-B
Tue 12:27:40 AM 34.8880 -100.1700 313° West 465 535 36,000  Level FlightAware ADS-B
Tue 12:28:16 AM 34.9320 -100.2300 312° West 465 535 36,000  Level FlightAware ADS-B
Tue 12:29:04 AM 34.9900 -100.3100 312° West 465 535 36,000  Level FlightAware ADS-B
Tue 12:29:40 AM 35.0340 -100.3690 312° West 465 535 36,000  Level FlightAware ADS-B
Tue 12:30:41 AM 35.1090 -100.4710 312° West 465 535 36,000  Level FlightAware ADS-B
Tue 12:31:17 AM 35.1530 -100.5310 312° West 465 535 36,000  Level FlightAware ADS-B
Tue 12:32:05 AM 35.2120 -100.6100 312° West 465 535 36,000  Level FlightAware ADS-B
Tue 12:32:39 AM 35.2530 -100.6670 311° West 465 535 36,000  Level FlightAware ADS-B
Tue 12:33:27 AM 35.3120 -100.7470 312° West 465 535 36,000  Level FlightAware ADS-B
Tue 12:34:04 AM 35.3570 -100.8090 312° West 465 535 36,000  Level FlightAware ADS-B
Tue 12:34:53 AM 35.4170 -100.8900 312° West 465 535 36,000  Level FlightAware ADS-B
Tue 12:35:30 AM 35.4630 -100.9520 312° West 465 535 36,000  Level FlightAware ADS-B
Tue 12:36:18 AM 35.5210 -101.0320 312° West 465 535 36,000  Level FlightAware ADS-B
Tue 12:36:54 AM 35.5650 -101.0920 312° West 465 535 36,000  Level FlightAware ADS-B
Tue 12:38:15 AM 35.7369 -101.4358 312° West 453 521 36,000  Level Albuquerque Center
Tue 12:39:16 AM 35.8194 -101.5483 312° West 449 517 36,000  Level Albuquerque Center
Tue 12:40:17 AM 35.9017 -101.6608 312° West 447 514 36,000  Level Albuquerque Center
Tue 12:41:18 AM 35.9847 -101.7725 313° West 445 512 36,000  Level Albuquerque Center
Tue 12:42:18 AM 36.0653 -101.8853 311° West 442 509 36,000  Level Albuquerque Center
Tue 12:43:19 AM 36.1647 -102.0203 312° West 443 510 36,000  Level Albuquerque Center
Tue 12:44:20 AM 36.2458 -102.1311 312° West 438 504 36,000  Level Albuquerque Center
Tue 12:45:21 AM 36.3264 -102.2436 312° West 438 504 36,000  Level Albuquerque Center
Tue 12:46:22 AM 36.4083 -102.3556 312° West 438 504 36,000  Level Albuquerque Center
Tue 12:47:23 AM 36.4897 -102.4689 312° West 440 506 36,000  Level Albuquerque Center
Tue 12:53:11 AM 36.9655 -103.1380 312° West 36,000  Level FlightAware ADS-B
Tue 12:53:15 AM 36.9708 -103.1450 313° West 433 498 36,000  Level FlightAware ADS-B
Tue 12:53:47 AM 37.0126 -103.2050 311° West 434 499 36,000  Level FlightAware ADS-B
Tue 12:54:19 AM 37.0558 -103.2660 312° West 434 499 36,000  Level FlightAware ADS-B
Tue 12:55:40 AM 37.1612 -103.4170 311° West 429 494 36,000  Level FlightAware ADS-B
Tue 12:56:11 AM 37.2016 -103.4750 311° West 427 491 36,000  Level FlightAware ADS-B
Tue 12:57:16 AM 37.2858 -103.5950 311° West 427 491 36,000  Level FlightAware ADS-B
Tue 12:57:47 AM 37.3255 -103.6530 311° West 422 486 36,000  Level FlightAware ADS-B
Tue 12:58:17 AM 37.3649 -103.7090 312° West 422 486 36,000  Level FlightAware ADS-B
Tue 12:58:53 AM 37.4106 -103.7760 311° West 422 486 36,000 174 Level FlightAware ADS-B
Tue 12:59:26 AM 37.4522 -103.8360 311° West 425 489 36,200 844 Climbing FlightAware ADS-B
Tue 12:59:57 AM 37.4916 -103.8940 311° West 419 482 36,900 1,279 Climbing FlightAware ADS-B
Tue 01:00:27 AM 37.5303 -103.9500 311° West 415 478 37,500 1,082 Climbing FlightAware ADS-B
Tue 01:00:58 AM 37.5679 -104.0050 311° West 409 471 38,000 484 Climbing FlightAware ADS-B
Tue 01:01:29 AM 37.6065 -104.0610 311° West 408 470 38,000  Level FlightAware ADS-B
Tue 01:01:59 AM 37.6438 -104.1150 311° West 407 468 38,000  Level FlightAware ADS-B
Tue 01:02:30 AM 37.6817 -104.1700 311° West 406 467 38,000  Level FlightAware ADS-B
Tue 01:03:09 AM 37.7298 -104.2410 311° West 406 467 38,000  Level FlightAware ADS-B
Tue 01:03:42 AM 37.7691 -104.2990 311° West 406 467 38,000  Level FlightAware ADS-B
Tue 01:04:17 AM 37.8124 -104.3620 311° West 406 467 38,000  Level FlightAware ADS-B
Tue 01:04:51 AM 37.8534 -104.4230 310° West 405 466 38,000  Level FlightAware ADS-B
Tue 01:05:21 AM 37.8904 -104.4780 310° West 409 471 38,000  Level FlightAware ADS-B
Tue 01:06:07 AM 37.9465 -104.5610 311° West 411 473 38,000  Level FlightAware ADS-B
Tue 01:06:48 AM 37.9978 -104.6370 311° West 411 473 38,000  Level FlightAware ADS-B
Tue 01:07:31 AM 38.0507 -104.7160 310° West 411 473 38,000  Level FlightAware ADS-B
Tue 01:08:11 AM 38.0995 -104.7880 311° West 411 473 38,000  Level FlightAware ADS-B
Tue 01:08:41 AM 38.1369 -104.8440 310° West 413 475 38,000  Level FlightAware ADS-B
Tue 01:09:11 AM 38.1741 -104.9000 310° West 416 479 38,000  Level FlightAware ADS-B
Tue 01:09:42 AM 38.2118 -104.9560 311° West 417 480 38,000  Level FlightAware ADS-B
Tue 01:10:13 AM 38.2502 -105.0140 310° West 419 482 38,000  Level FlightAware ADS-B
Tue 01:10:43 AM 38.2883 -105.0710 310° West 419 482 38,000  Level FlightAware ADS-B
Tue 01:11:13 AM 38.3259 -105.1280 310° West 419 482 38,000  Level FlightAware ADS-B
Tue 01:11:44 AM 38.3638 -105.1850 310° West 419 482 38,000  Level FlightAware ADS-B
Tue 01:12:15 AM 38.4023 -105.2440 310° West 419 482 38,000  Level FlightAware ADS-B
Tue 01:12:45 AM 38.4407 -105.3020 310° West 420 483 38,000  Level FlightAware ADS-B
Tue 01:13:16 AM 38.4784 -105.3590 310° West 420 483 38,000  Level FlightAware ADS-B
Tue 01:13:46 AM 38.5159 -105.4160 310° West 422 486 38,000  Level FlightAware ADS-B
Tue 01:14:16 AM 38.5535 -105.4740 310° West 424 488 38,000  Level FlightAware ADS-B
Tue 01:14:46 AM 38.5917 -105.5320 310° West 425 489 38,000  Level FlightAware ADS-B
Tue 01:15:16 AM 38.6297 -105.5900 310° West 426 490 38,000  Level FlightAware ADS-B
Tue 01:15:46 AM 38.6674 -105.6480 310° West 428 493 38,000  Level FlightAware ADS-B
Tue 01:16:16 AM 38.7054 -105.7060 310° West 428 493 38,000  Level FlightAware ADS-B
Tue 01:16:47 AM 38.7448 -105.7670 310° West 428 493 38,000  Level FlightAware ADS-B
Tue 01:17:18 AM 38.7830 -105.8260 310° West 427 491 38,000  Level FlightAware ADS-B
Tue 01:17:48 AM 38.8209 -105.8840 310° West 428 493 38,000  Level FlightAware ADS-B
Tue 01:18:18 AM 38.8589 -105.9430 310° West 428 493 38,000  Level FlightAware ADS-B
Tue 01:18:48 AM 38.8970 -106.0020 310° West 426 490 38,000  Level FlightAware ADS-B
Tue 01:19:19 AM 38.9356 -106.0620 310° West 428 493 38,000  Level FlightAware ADS-B
Tue 01:19:51 AM 38.9755 -106.1240 310° West 428 493 38,000  Level FlightAware ADS-B
Tue 01:20:21 AM 39.0132 -106.1830 309° West 428 493 38,000  Level FlightAware ADS-B
Tue 01:20:52 AM 39.0525 -106.2440 310° West 428 493 38,000  Level FlightAware ADS-B
Tue 01:21:22 AM 39.0903 -106.3030 310° West 428 493 38,000  Level FlightAware ADS-B
Tue 01:21:52 AM 39.1279 -106.3620 309° West 428 493 38,000  Level FlightAware ADS-B
Tue 01:22:22 AM 39.1657 -106.4210 310° West 428 493 38,000  Level FlightAware ADS-B
Tue 01:22:52 AM 39.2035 -106.4810 309° West 427 491 38,000  Level FlightAware ADS-B
Tue 01:23:22 AM 39.2410 -106.5400 309° West 428 493 38,000  Level FlightAware ADS-B
Tue 01:23:53 AM 39.2799 -106.6010 309° West 428 493 38,000  Level FlightAware ADS-B
Tue 01:24:24 AM 39.3175 -106.6610 309° West 427 491 38,000  Level FlightAware ADS-B
Tue 01:24:54 AM 39.3549 -106.7200 309° West 427 491 38,000  Level FlightAware ADS-B
Tue 01:25:24 AM 39.3925 -106.7800 309° West 427 491 38,000  Level FlightAware ADS-B
Tue 01:25:55 AM 39.4315 -106.8410 310° West 426 490 38,000  Level FlightAware ADS-B
Tue 01:26:26 AM 39.4688 -106.9010 309° West 426 490 38,000  Level FlightAware ADS-B
Tue 01:26:56 AM 39.5060 -106.9600 309° West 426 490 38,000  Level FlightAware ADS-B
Tue 01:27:26 AM 39.5433 -107.0200 309° West 425 489 38,000  Level FlightAware ADS-B
Tue 01:27:56 AM 39.5805 -107.0800 309° West 425 489 38,000  Level FlightAware ADS-B
Tue 01:28:27 AM 39.6184 -107.1410 309° West 425 489 38,000  Level FlightAware ADS-B
Tue 01:28:59 AM 39.6588 -107.2060 309° West 425 489 38,000  Level FlightAware ADS-B
Tue 01:29:30 AM 39.6962 -107.2660 309° West 425 489 38,000  Level FlightAware ADS-B
Tue 01:30:01 AM 39.7340 -107.3270 309° West 425 489 38,000  Level FlightAware ADS-B
Tue 01:30:36 AM 39.7780 -107.3980 309° West 425 489 38,000  Level FlightAware ADS-B
Tue 01:31:07 AM 39.8157 -107.4590 309° West 425 489 38,000  Level FlightAware ADS-B
Tue 01:31:37 AM 39.8525 -107.5190 309° West 426 490 38,000  Level FlightAware ADS-B
Tue 01:32:08 AM 39.8904 -107.5810 309° West 426 490 38,000  Level FlightAware ADS-B
Tue 01:32:59 AM 39.9527 -107.6830 309° West 426 490 38,000  Level FlightAware ADS-B
Tue 01:33:51 AM 40.0170 -107.7870 309° West 427 491 38,000  Level FlightAware ADS-B
Tue 01:34:35 AM 40.0710 -107.8760 308° West 427 491 38,000  Level FlightAware ADS-B
Tue 01:35:15 AM 40.1190 -107.9570 308° West 427 491 38,000  Level FlightAware ADS-B
Tue 01:35:59 AM 40.1740 -108.0460 309° West 428 493 38,000  Level FlightAware ADS-B
Tue 01:36:39 AM 40.2220 -108.1260 308° West 428 493 38,000  Level FlightAware ADS-B
Tue 01:37:20 AM 40.2720 -108.2100 308° West 428 493 38,000  Level FlightAware ADS-B
Tue 01:38:03 AM 40.3260 -108.2980 309° West 430 495 38,000  Level FlightAware ADS-B
Tue 01:38:48 AM 40.3800 -108.3900 308° West 432 497 38,000  Level FlightAware ADS-B
Tue 01:39:27 AM 40.4290 -108.4710 308° West 433 498 38,000  Level FlightAware ADS-B
Tue 01:40:11 AM 40.4830 -108.5620 308° West 434 499 38,000  Level FlightAware ADS-B
Tue 01:40:47 AM 40.5280 -108.6380 308° West 435 501 38,000  Level FlightAware ADS-B
Tue 01:41:28 AM 40.5780 -108.7220 308° West 437 503 38,000  Level FlightAware ADS-B
Tue 01:42:09 AM 40.6290 -108.8090 308° West 439 505 38,000  Level FlightAware ADS-B
Tue 01:42:44 AM 40.6720 -108.8820 308° West 441 507 38,000  Level FlightAware ADS-B
Tue 01:43:29 AM 40.7290 -108.9790 308° West 442 509 38,000  Level FlightAware ADS-B
Tue 01:44:05 AM 40.7740 -109.0560 308° West 444 511 38,000  Level FlightAware ADS-B
Tue 01:44:48 AM 40.8270 -109.1470 308° West 444 511 38,000  Level FlightAware ADS-B
Tue 01:45:33 AM 40.8850 -109.2450 308° West 445 512 38,000  Level FlightAware ADS-B
Tue 01:46:14 AM 40.9330 -109.3280 307° West 446 513 38,000  Level FlightAware ADS-B
Tue 01:46:58 AM 40.9900 -109.4280 307° West 445 512 38,000  Level FlightAware ADS-B
Tue 01:47:34 AM 41.0350 -109.5040 308° West 443 510 38,000  Level FlightAware ADS-B
Tue 01:48:15 AM 41.0840 -109.5910 307° West 441 507 38,000  Level FlightAware ADS-B
Tue 01:48:54 AM 41.1340 -109.6770 308° West 440 506 38,000  Level FlightAware ADS-B
Tue 01:49:30 AM 41.1790 -109.7550 307° West 439 505 38,000  Level FlightAware ADS-B
Tue 01:50:15 AM 41.2330 -109.8500 307° West 438 504 38,000  Level FlightAware ADS-B
Tue 01:50:54 AM 41.2810 -109.9340 307° West 437 503 38,000  Level FlightAware ADS-B
Tue 01:51:31 AM 41.3260 -110.0130 307° West 435 501 38,000  Level FlightAware ADS-B
Tue 01:52:11 AM 41.3720 -110.0940 307° West 434 499 38,000  Level FlightAware ADS-B
Tue 01:53:09 AM 41.4420 -110.2200 307° West 432 497 38,000  Level FlightAware ADS-B
Tue 01:53:42 AM 41.4810 -110.2890 307° West 433 498 38,000  Level FlightAware ADS-B
Tue 01:54:34 AM 41.5450 -110.4030 307° West 440 506 38,000  Level FlightAware ADS-B
Tue 01:55:12 AM 41.5910 -110.4840 307° West 440 506 38,000  Level FlightAware ADS-B
Tue 01:56:07 AM 41.6520 -110.5950 306° West 439 505 38,000  Level FlightAware ADS-B
Tue 01:56:43 AM 41.6880 -110.6630 305° West 439 505 38,000  Level FlightAware ADS-B
Tue 01:57:43 AM 41.7490 -110.7750 306° West 439 505 38,000  Level FlightAware ADS-B
Tue 01:58:19 AM 41.7860 -110.8420 307° West 439 505 38,000  Level FlightAware ADS-B
Tue 01:59:06 AM 41.8720 -110.9930 307° West 430 495 38,000  Level FlightAware ADS-B
Tue 01:59:46 AM 41.9180 -111.0760 307° West 429 494 38,000  Level FlightAware ADS-B
Tue 02:00:30 AM 41.9700 -111.1710 306° West 426 490 38,000  Level FlightAware ADS-B
Tue 02:01:08 AM 42.0140 -111.2510 307° West 425 489 38,000  Level FlightAware ADS-B
Tue 02:01:48 AM 42.0600 -111.3370 306° West 424 488 38,000  Level FlightAware ADS-B
Tue 02:02:30 AM 42.1080 -111.4260 306° West 422 486 38,000  Level FlightAware ADS-B
Tue 02:03:17 AM 42.1620 -111.5250 306° West 422 486 38,000  Level FlightAware ADS-B
Tue 02:04:00 AM 42.2120 -111.6180 306° West 421 484 38,000  Level FlightAware ADS-B
Tue 02:04:40 AM 42.2570 -111.7010 306° West 421 484 38,000  Level FlightAware ADS-B
Tue 02:05:08 AM 42.2890 -111.7620 305° West 419 482 38,000  Level FlightAware ADS-B
Tue 02:05:40 AM 42.3250 -111.8290 306° West 419 482 38,000  Level FlightAware ADS-B
Tue 02:06:55 AM 42.4020 -111.9750 306° West 419 482 38,000  Level FlightAware ADS-B
Tue 02:07:39 AM 42.4530 -112.0710 306° West 423 487 38,000  Level FlightAware ADS-B
Tue 02:08:18 AM 42.5040 -112.1670 306° West 427 491 38,000  Level FlightAware ADS-B
Tue 02:08:52 AM 42.5390 -112.2320 306° West 427 491 38,000  Level FlightAware ADS-B
Tue 02:09:56 AM 42.6120 -112.3720 305° West 429 494 38,000  Level FlightAware ADS-B
Tue 02:10:32 AM 42.6470 -112.4390 305° West 429 494 38,000  Level FlightAware ADS-B
Tue 02:11:15 AM 42.7020 -112.5430 306° West 436 502 38,000  Level FlightAware ADS-B
Tue 02:12:01 AM 42.7640 -112.6620 305° West 439 505 38,000  Level FlightAware ADS-B
Tue 02:12:43 AM 42.8140 -112.7570 306° West 440 506 38,000  Level FlightAware ADS-B
Tue 02:13:27 AM 42.8640 -112.8560 305° West 435 501 38,000  Level FlightAware ADS-B
Tue 02:14:07 AM 42.9100 -112.9450 305° West 433 498 38,000  Level FlightAware ADS-B
Tue 02:14:51 AM 42.9610 -113.0440 305° West 434 499 38,000  Level FlightAware ADS-B
Tue 02:15:31 AM 43.0070 -113.1330 305° West 435 501 38,000  Level FlightAware ADS-B
Tue 02:16:15 AM 43.0570 -113.2320 305° West 436 502 38,000  Level FlightAware ADS-B
Tue 02:16:55 AM 43.1040 -113.3240 305° West 437 503 38,000  Level FlightAware ADS-B
Tue 02:17:31 AM 43.1460 -113.4070 305° West 437 503 38,000  Level FlightAware ADS-B
Tue 02:18:15 AM 43.1960 -113.5060 305° West 439 505 38,000  Level FlightAware ADS-B
Tue 02:18:55 AM 43.2420 -113.5970 305° West 439 505 38,000  Level FlightAware ADS-B
Tue 02:19:39 AM 43.2930 -113.6980 305° West 440 506 38,000  Level FlightAware ADS-B
Tue 02:20:19 AM 43.3390 -113.7910 304° West 439 505 38,000  Level FlightAware ADS-B
Tue 02:21:03 AM 43.3890 -113.8890 305° West 438 504 38,000  Level FlightAware ADS-B
Tue 02:22:00 AM 43.4470 -114.0070 304° West 438 504 38,000  Level FlightAware ADS-B
Tue 02:22:31 AM 43.4890 -114.0920 304° West 436 502 38,000  Level FlightAware ADS-B
Tue 02:23:14 AM 43.5390 -114.1920 305° West 435 501 38,000  Level FlightAware ADS-B
Tue 02:23:56 AM 43.5860 -114.2880 304° West 435 501 38,000  Level FlightAware ADS-B
Tue 02:24:32 AM 43.6260 -114.3700 304° West 435 501 38,000  Level FlightAware ADS-B
Tue 02:25:12 AM 43.6720 -114.4620 305° West 433 498 38,000  Level FlightAware ADS-B
Tue 02:25:56 AM 43.7200 -114.5610 304° West 431 496 38,000  Level FlightAware ADS-B
Tue 02:26:36 AM 43.7640 -114.6530 304° West 431 496 38,000  Level FlightAware ADS-B
Tue 02:27:20 AM 43.8130 -114.7530 304° West 429 494 38,000  Level FlightAware ADS-B
Tue 02:28:00 AM 43.8580 -114.8450 304° West 430 495 38,000  Level FlightAware ADS-B
Tue 02:28:43 AM 43.9040 -114.9430 303° West 433 498 38,000  Level FlightAware ADS-B
Tue 02:29:19 AM 43.9450 -115.0270 304° West 434 499 38,000  Level FlightAware ADS-B
Tue 02:30:00 AM 43.9900 -115.1210 304° West 435 501 38,000  Level FlightAware ADS-B
Tue 02:30:43 AM 44.0380 -115.2220 303° West 437 503 38,000  Level FlightAware ADS-B
Tue 02:31:19 AM 44.0780 -115.3060 304° West 437 503 38,000  Level FlightAware ADS-B
Tue 02:31:59 AM 44.1230 -115.4000 304° West 439 505 38,000  Level FlightAware ADS-B
Tue 02:32:39 AM 44.1680 -115.4950 303° West 439 505 38,000  Level FlightAware ADS-B
Tue 02:33:20 AM 44.2130 -115.5910 303° West 439 505 38,000  Level FlightAware ADS-B
Tue 02:34:03 AM 44.2600 -115.6930 303° West 436 502 38,000  Level FlightAware ADS-B
Tue 02:34:47 AM 44.3080 -115.7950 303° West 436 502 38,000  Level FlightAware ADS-B
Tue 02:35:29 AM 44.3540 -115.8940 303° West 434 499 38,000  Level FlightAware ADS-B
Tue 02:36:12 AM 44.4010 -115.9940 303° West 433 498 38,000  Level FlightAware ADS-B
Tue 02:36:44 AM 44.4370 -116.0700 304° West 435 501 38,000  Level FlightAware ADS-B
Tue 02:37:28 AM 44.4890 -116.1700 306° West 437 503 38,000  Level FlightAware ADS-B
Tue 02:38:08 AM 44.5380 -116.2620 307° West 437 503 38,000  Level FlightAware ADS-B
Tue 02:38:44 AM 44.5800 -116.3430 306° West 437 503 38,000  Level FlightAware ADS-B
Tue 02:39:28 AM 44.6330 -116.4450 306° West 438 504 38,000  Level FlightAware ADS-B
Tue 02:40:08 AM 44.6800 -116.5360 306° West 439 505 38,000  Level FlightAware ADS-B
Tue 02:40:48 AM 44.7270 -116.6280 306° West 439 505 38,000  Level FlightAware ADS-B
Tue 02:41:34 AM 44.7820 -116.7340 306° West 439 505 38,000  Level FlightAware ADS-B
Tue 02:42:14 AM 44.8300 -116.8260 306° West 438 504 38,000  Level FlightAware ADS-B
Tue 02:42:57 AM 44.8800 -116.9250 306° West 437 503 38,000  Level FlightAware ADS-B
Tue 02:43:34 AM 44.9250 -117.0120 306° West 437 503 38,000  Level FlightAware ADS-B
Tue 02:44:14 AM 44.9710 -117.1050 305° West 435 501 38,000  Level FlightAware ADS-B
Tue 02:44:58 AM 45.0230 -117.2040 307° West 435 501 38,000  Level FlightAware ADS-B
Tue 02:45:30 AM 45.0610 -117.2790 306° West 435 501 38,000  Level FlightAware ADS-B
Tue 02:46:14 AM 45.1130 -117.3800 306° West 434 499 38,000  Level FlightAware ADS-B
Tue 02:46:54 AM 45.1600 -117.4730 306° West 436 502 38,000  Level FlightAware ADS-B
Tue 02:47:38 AM 45.2110 -117.5740 306° West 436 502 38,000  Level FlightAware ADS-B
Tue 02:48:18 AM 45.2580 -117.6670 306° West 435 501 38,000  Level FlightAware ADS-B
Tue 02:49:02 AM 45.3100 -117.7700 306° West 435 501 38,000  Level FlightAware ADS-B
Tue 02:49:46 AM 45.3610 -117.8710 306° West 434 499 38,000  Level FlightAware ADS-B
Tue 02:50:27 AM 45.4080 -117.9650 305° West 434 499 38,000  Level FlightAware ADS-B
Tue 02:51:08 AM 45.4570 -118.0630 306° West 433 498 38,000  Level FlightAware ADS-B
Tue 02:51:52 AM 45.5070 -118.1640 305° West 432 497 38,000  Level FlightAware ADS-B
Tue 02:52:32 AM 45.5530 -118.2570 305° West 432 497 38,000  Level FlightAware ADS-B
Tue 02:53:16 AM 45.6040 -118.3600 305° West 433 498 38,000  Level FlightAware ADS-B
Tue 02:53:50 AM 45.6430 -118.4400 305° West 435 501 38,000  Level FlightAware ADS-B
Tue 02:54:32 AM 45.6910 -118.5380 305° West 435 501 38,000  Level FlightAware ADS-B
Tue 02:55:12 AM 45.7380 -118.6330 305° West 437 503 38,000  Level FlightAware ADS-B
Tue 02:55:56 AM 45.7880 -118.7370 305° West 438 504 38,000  Level FlightAware ADS-B
Tue 02:56:32 AM 45.8300 -118.8230 305° West 437 503 38,000  Level FlightAware ADS-B
Tue 02:57:12 AM 45.8760 -118.9180 305° West 437 503 38,000  Level FlightAware ADS-B
Tue 02:57:56 AM 45.9260 -119.0230 304° West 437 503 38,000  Level FlightAware ADS-B
Tue 02:58:32 AM 45.9680 -119.1100 305° West 437 503 38,000  Level FlightAware ADS-B
Tue 02:59:14 AM 46.0160 -119.2090 305° West 437 503 38,000  Level FlightAware ADS-B
Tue 02:59:56 AM 46.0640 -119.3110 304° West 436 502 38,000  Level FlightAware ADS-B
Tue 03:01:47 AM 46.1700 -119.5370 304° West 436 502 38,000  Level FlightAware ADS-B
Tue 03:02:20 AM 46.2269 -119.6540 305° West 430 495 38,000  Level FlightAware ADS-B
Tue 03:02:51 AM 46.2607 -119.7260 304° West 430 495 38,000 -492 Level FlightAware ADS-B
Tue 03:03:21 AM 46.2942 -119.7980 304° West 434 499 37,500 -952 Descending FlightAware ADS-B
Tue 03:03:54 AM 46.3290 -119.8730 304° West 435 501 37,000 -935 Descending FlightAware ADS-B
Tue 03:04:38 AM 46.3800 -119.9820 304° West 432 497 36,300 -1,172 Descending FlightAware ADS-B
Tue 03:05:21 AM 46.4270 -120.0830 304° West 426 490 35,300 -2,143 Descending FlightAware ADS-B
Tue 03:06:02 AM 46.4730 -120.1820 304° West 432 497 33,300 -2,965 Descending FlightAware ADS-B
Tue 03:06:46 AM 46.5220 -120.2880 304° West 437 503 31,100 -3,000 Descending FlightAware ADS-B
Tue 03:07:02 AM 46.5407 -120.3290 304° West 432 497 30,300 -2,553 Descending FlightAware ADS-B
Tue 03:07:33 AM 46.5748 -120.4030 304° West 433 498 29,100 -2,364 Descending FlightAware ADS-B
Tue 03:08:08 AM 46.6140 -120.4880 304° West 426 490 27,700 -2,314 Descending FlightAware ADS-B
Tue 03:08:43 AM 46.6504 -120.5690 303° West 417 480 26,400 -2,215 Descending FlightAware ADS-B
Tue 03:09:13 AM 46.6823 -120.6390 304° West 409 471 25,300 -2,206 Descending FlightAware ADS-B
Tue 03:09:51 AM 46.7209 -120.7240 304° West 402 463 23,900 -2,222 Descending FlightAware ADS-B
Tue 03:10:34 AM 46.7647 -120.8210 303° West 392 451 22,300 -2,219 Descending FlightAware ADS-B
Tue 03:11:04 AM 46.7944 -120.8870 303° West 385 443 21,200 -2,066 Descending FlightAware ADS-B
Tue 03:11:35 AM 46.8237 -120.9520 303° West 378 435 20,200 -2,066 Descending FlightAware ADS-B
Tue 03:12:05 AM 46.8525 -121.0170 303° West 374 430 19,100 -2,164 Descending FlightAware ADS-B
Tue 03:12:36 AM 46.8810 -121.0800 304° West 368 423 18,000 -2,066 Descending FlightAware ADS-B
Tue 03:13:06 AM 46.9092 -121.1430 303° West 362 417 17,000 -2,100 Descending FlightAware ADS-B
Tue 03:13:36 AM 46.9365 -121.2040 303° West 358 412 15,900 -2,066 Descending FlightAware ADS-B
Tue 03:14:07 AM 46.9637 -121.2650 303° West 354 407 14,900 -1,967 Descending FlightAware ADS-B
Tue 03:14:37 AM 46.9904 -121.3260 303° West 350 403 13,900 -2,000 Descending FlightAware ADS-B
Tue 03:15:07 AM 47.0166 -121.3850 303° West 345 397 12,900 -1,600 Descending FlightAware ADS-B
Tue 03:15:37 AM 47.0421 -121.4430 303° West 331 381 12,300 -787 Descending FlightAware ADS-B
Tue 03:16:08 AM 47.0664 -121.4980 303° West 312 359 12,100 -295 Descending FlightAware ADS-B
Tue 03:16:38 AM 47.0901 -121.5510 303° West 304 350 12,000 -113 Descending FlightAware ADS-B
Tue 03:17:01 AM 47.1079 -121.5890 305° West 299 344 12,000 -207 Level FlightAware ADS-B
Tue 03:17:07 AM 47.1126 -121.6000 302° West 298 343 11,900 -923 Descending FlightAware ADS-B
Tue 03:17:14 AM 47.1164 -121.6120 295° West 298 343 11,800 -1,459 Descending FlightAware ADS-B
Tue 03:17:44 AM 47.1306 -121.6690 290° West 296 341 11,000 -1,600 Descending FlightAware ADS-B
Tue 03:18:14 AM 47.1448 -121.7250 290° West 293 337 10,200 -1,467 Descending FlightAware ADS-B
Tue 03:18:29 AM 47.1517 -121.7530 290° West 290 334 9,900 -1,400 Descending FlightAware ADS-B
Tue 03:18:44 AM 47.1585 -121.7810 290° West 289 333 9,500 -1,355 Descending FlightAware ADS-B
Tue 03:19:00 AM 47.1653 -121.8090 290° West 285 328 9,200 -1,448 Descending FlightAware ADS-B
Tue 03:19:13 AM 47.1714 -121.8340 290° West 283 326 8,800 -1,448 Descending FlightAware ADS-B
Tue 03:19:29 AM 47.1781 -121.8620 289° West 282 325 8,500 -1,355 Descending FlightAware ADS-B
Tue 03:19:44 AM 47.1848 -121.8900 289° West 283 326 8,100 -1,800 Descending FlightAware ADS-B
Tue 03:19:59 AM 47.1913 -121.9170 290° West 283 326 7,600 -1,800 Descending FlightAware ADS-B
Tue 03:20:14 AM 47.1978 -121.9460 288° West 285 328 7,200 -1,548 Descending FlightAware ADS-B
Tue 03:20:30 AM 47.2043 -121.9740 289° West 286 329 6,800 -1,548 Descending FlightAware ADS-B
Tue 03:20:45 AM 47.2107 -122.0010 289° West 286 329 6,400 -1,600 Descending FlightAware ADS-B
Tue 03:21:00 AM 47.2172 -122.0300 288° West 286 329 6,000 -1,355 Descending FlightAware ADS-B
Tue 03:21:16 AM 47.2237 -122.0580 289° West 283 326 5,700 -1,161 Descending FlightAware ADS-B
Tue 03:21:31 AM 47.2300 -122.0850 289° West 280 322 5,400 -1,200 Descending FlightAware ADS-B
Tue 03:21:46 AM 47.2365 -122.1130 289° West 279 321 5,100 -774 Descending FlightAware ADS-B
Tue 03:22:02 AM 47.2428 -122.1400 289° West 272 313 5,000 -194 Descending FlightAware ADS-B
Tue 03:22:17 AM 47.2488 -122.1660 289° West 257 296 5,000  Level FlightAware ADS-B
Tue 03:22:32 AM 47.2544 -122.1900 289° West 247 284 5,000  Level FlightAware ADS-B
Tue 03:22:47 AM 47.2600 -122.2140 289° West 246 283 5,000 -387 Level FlightAware ADS-B
Tue 03:23:03 AM 47.2657 -122.2380 289° West 236 272 4,800 -889 Descending FlightAware ADS-B
Tue 03:23:14 AM 47.2698 -122.2550 290° West 232 267 4,600 -1,125 Descending FlightAware ADS-B
Tue 03:23:19 AM 47.2719 -122.2620 294° West 230 265 4,500 -2,000 Descending FlightAware ADS-B
Tue 03:23:23 AM 47.2741 -122.2680 298° West 228 262 4,300 -2,571 Descending FlightAware ADS-B
Tue 03:23:26 AM 47.2757 -122.2720 301° West 229 264 4,200 -1,714 Descending FlightAware ADS-B
Tue 03:23:30 AM 47.2776 -122.2770 299° West 228 262 4,100 -750 Descending FlightAware ADS-B
Tue 03:23:34 AM 47.2799 -122.2810 310° West 224 258 4,100 -857 Level FlightAware ADS-B
Tue 03:23:37 AM 47.2824 -122.2860 306° West 221 254 4,000 -1,714 Descending FlightAware ADS-B
Tue 03:23:41 AM 47.2846 -122.2890 317° Northwest 218 251 3,900 -2,000 Descending FlightAware ADS-B
Tue 03:23:49 AM 47.2903 -122.2970 316° Northwest 214 246 3,600 -2,000 Descending FlightAware ADS-B
Tue 03:23:53 AM 47.2932 -122.3010 317° Northwest 212 244 3,500 -1,500 Descending FlightAware ADS-B
Tue 03:23:57 AM 47.2965 -122.3040 328° Northwest 210 242 3,400 -2,250 Descending FlightAware ADS-B
Tue 03:24:01 AM 47.2997 -122.3060 337° Northwest 207 238 3,200 -2,571 Descending FlightAware ADS-B
Tue 03:24:04 AM 47.3025 -122.3070 346° North 206 237 3,100 -2,000 Descending FlightAware ADS-B
Tue 03:24:07 AM 47.3059 -122.3080 349° North 202 232 3,000 -1,714 Descending FlightAware ADS-B
Tue 03:24:11 AM 47.3089 -122.3090 347° North 199 229 2,900 -2,000 Descending FlightAware ADS-B
Tue 03:24:19 AM 47.3168 -122.3090 360° North 194 223 2,600 -1,500 Descending FlightAware ADS-B
Tue 03:24:27 AM 47.3233 -122.3090 360° North 190 219 2,500 -1,385 Descending FlightAware ADS-B
Tue 03:24:32 AM 47.3283 -122.3090 360° North 185 213 2,300 -1,200 Descending FlightAware ADS-B
Tue 03:24:42 AM 47.3365 -122.3090 360° North 176 203 2,200 -667 Descending FlightAware ADS-B
Tue 03:24:50 AM 47.3424 -122.3090 360° North 173 199 2,100 -857 Descending FlightAware ADS-B
Tue 03:25:03 AM 47.3526 -122.3090 360° North 167 192 1,900 -1,200 Descending FlightAware ADS-B
Tue 03:25:10 AM 47.3584 -122.3090 360° North 158 182 1,700 -800 Descending FlightAware ADS-B
Tue 03:25:18 AM 47.3640 -122.3090 360° North 149 171 1,700 -429 Level FlightAware ADS-B
Tue 03:25:24 AM 47.3676 -122.3090 360° North 143 165 1,600 -923 Descending FlightAware ADS-B
Tue 03:25:31 AM 47.3723 -122.3090 360° North 133 153 1,500 -600 Descending FlightAware ADS-B
Tue 03:25:34 AM 47.3742 -122.3090 360° North 131 151 1,500 -1,333 Level FlightAware ADS-B
Tue 03:25:40 AM 47.3778 -122.3090 360° North 129 148 1,300 -1,000 Descending FlightAware ADS-B
Tue 03:25:52 AM 47.3845 -122.3080 North 125 144 1,200 -571 Descending FlightAware ADS-B
Tue 03:26:01 AM 47.3896 -122.3080 360° North 125 144 1,100 -462 Descending FlightAware ADS-B
Tue 03:26:05 AM 47.3924 -122.3090 346° North 125 144 1,100 -375 Level FlightAware ADS-B
Tue 03:26:17 AM 47.3993 -122.3080 North 128 147 1,000 -632 Descending FlightAware ADS-B
Tue 03:26:24 AM 47.4036 -122.3080 360° North 131 151 900 -800 Descending FlightAware ADS-B
Tue 03:26:32 AM 47.4084 -122.3080 360° North 132 152 800 -706 Descending FlightAware ADS-B
Tue 03:26:41 AM 47.4135 -122.3080 360° North 137 158 700 -632 Descending FlightAware ADS-B
Tue 03:26:51 AM 47.4206 -122.3080 360° North 140 161 600 -143 Descending FlightAware ADS-B
Tue 03:27:23 AM 47.4340 -122.3090 357° North 140 161 600 -169 Level FlightAware ADS-B
Tue 03:28:02 AM 47.4581 -122.3089 357° North 137 158 400 -308 Descending Seattle Center

Login

Don't have an account? Register now (free) for customized features, flight alerts, and more!